Colcord, OK (74338)

3:55 AM CDT on October 20, 2014 (GMT -0500)
Lake Forrest Heights | Change Station
CLOSE
Current Station
Personal Weather Station
Location: Siloam Springs, AR
Elevation: 1148 ft
Nearby Weather Stations

Elev 1148 ft 36.22 °N, 94.54 °W | Updated 11 minutes ago

Overcast
Overcast
54.7 °F
Feels Like 54.7 °F
N
0.7
Wind Variable Wind from South
Gusts 2.2 mph

Today
High -- | Low -- °F
--% Chance of Precip.
Yesterday
High -- | Low -- °F
Precip. -- in
7:30 AM 6:36 PM
Waning Crescent, 12% visible
Pressure 30.08 in
Visibility 7.0 miles
Clouds Overcast 3900 ft
Dew Point 54 °F
Humidity 97%
Rainfall 0.05 in
Snow Depth Not available.
UV 0 out of 12
Pollen 4.20 out of 12
Air Quality Not available.
Flu Activity No Activity
METAR KSLG 200835Z AUTO 00000KT 7SM OVC039 13/09 A3008 RMK AO1 P0002

More Conditions Fewer Conditions

Pressure 30.08 in
Visibility 7.0 miles
Clouds Overcast 3900 ft
Dew Point 54 °F
Humidity 97%
Rainfall 0.05 in
Snow Depth Not available.
UV 0 out of 12
Pollen 4.20 out of 12
Air Quality Not available.
Flu Activity No Activity
METAR KSLG 200835Z AUTO 00000KT 7SM OVC039 13/09 A3008 RMK AO1 P0002

More Conditions Fewer Conditions

Nowcast | as of 3:55 am CDT on October 20, 2014

At 350 am...National Weather Service Doppler radars showed scattered showers across northeast Oklahoma and far northwest Arkansas...mainly north of a Okmulgee to Fayetteville line. Movement was to the southeast at 25 mph. Through 5 am...widely scattered to scattered showers will continue across eastern Oklahoma and western Arkansas...mainly north of Interstate 40. A few thunderstorms will also be be possible.

×

10-Day Weather Forecast

Almanac

Astronomy

Oct. 20, 2014 Rise Set
Actual Time 7:30 AM CDT 6:36 PM CDT
Civil Twilight 7:04 AM CDT 7:02 PM CDT
Nautical Twilight 6:34 AM CDT 7:32 PM CDT
Astronomical Twilight 6:04 AM CDT 8:01 PM CDT
Moon 4:24 AM CDT 4:54 PM CDT
Length of Visible Light 11h 58m
Length of Day
11h 05m
Waning Crescent, 12% of the Moon is Illuminated
Today
Waning Crescent
Oct 23
New
Oct 30
First Quarter
Nov 6
Full
Nov 14
Last Quarter

Today's Extremes

State Highs State Lows

Community

WunderPhotos

Upload Photos

1,763,316 photos uploaded!

Nearby

Snow Depth

Station Depth Elevation
No new snow has been reported.

Earthquake Activity

City Distance Mag. Time & Date
No recent earthquake activity has been reported nearby.
Minimum magnitude displayed is 2.5.

Coastal Water Temperatures

Place Temperature
No Stations Reporting

Nearby Weather Stations